sensor_id;sensor_type;location;lat;lon;timestamp;temperature;humidity
44166;DHT22;30476;53.468;9.826;2022-11-11T00:00:37;13.70;97.90
44166;DHT22;30476;53.468;9.826;2022-11-11T00:03:03;13.70;97.90
44166;DHT22;30476;53.468;9.826;2022-11-11T00:05:32;13.70;97.90
44166;DHT22;30476;53.468;9.826;2022-11-11T00:07:58;13.70;97.90
44166;DHT22;30476;53.468;9.826;2022-11-11T00:10:25;13.70;97.90
44166;DHT22;30476;53.468;9.826;2022-11-11T00:12:52;13.70;97.90
44166;DHT22;30476;53.468;9.826;2022-11-11T00:15:18;13.70;98.00
44166;DHT22;30476;53.468;9.826;2022-11-11T00:17:43;13.70;98.00
44166;DHT22;30476;53.468;9.826;2022-11-11T00:20:28;13.70;98.00
44166;DHT22;30476;53.468;9.826;2022-11-11T00:23:23;13.70;98.00
44166;DHT22;30476;53.468;9.826;2022-11-11T00:26:08;13.70;98.00
44166;DHT22;30476;53.468;9.826;2022-11-11T00:28:35;13.70;98.10
44166;DHT22;30476;53.468;9.826;2022-11-11T00:31:06;13.70;98.20
44166;DHT22;30476;53.468;9.826;2022-11-11T00:33:33;13.60;98.10
44166;DHT22;30476;53.468;9.826;2022-11-11T00:35:59;13.70;98.20
44166;DHT22;30476;53.468;9.826;2022-11-11T00:38:25;13.70;98.20
44166;DHT22;30476;53.468;9.826;2022-11-11T00:41:15;13.70;98.20
44166;DHT22;30476;53.468;9.826;2022-11-11T00:43:42;13.70;98.30
44166;DHT22;30476;53.468;9.826;2022-11-11T00:46:09;13.70;98.30
44166;DHT22;30476;53.468;9.826;2022-11-11T00:48:53;13.70;98.30
44166;DHT22;30476;53.468;9.826;2022-11-11T00:51:39;13.70;98.30
44166;DHT22;30476;53.468;9.826;2022-11-11T00:54:05;13.70;98.40
44166;DHT22;30476;53.468;9.826;2022-11-11T00:56:31;13.70;98.40
44166;DHT22;30476;53.468;9.826;2022-11-11T00:58:58;13.70;98.40
44166;DHT22;30476;53.468;9.826;2022-11-11T01:01:24;13.70;98.40
44166;DHT22;30476;53.468;9.826;2022-11-11T01:03:50;13.70;98.50
44166;DHT22;30476;53.468;9.826;2022-11-11T01:06:16;13.70;98.50
44166;DHT22;30476;53.468;9.826;2022-11-11T01:08:41;13.70;98.50
44166;DHT22;30476;53.468;9.826;2022-11-11T01:11:13;13.70;98.40
44166;DHT22;30476;53.468;9.826;2022-11-11T01:13:40;13.70;98.50
44166;DHT22;30476;53.468;9.826;2022-11-11T01:16:09;13.70;98.50
44166;DHT22;30476;53.468;9.826;2022-11-11T01:18:36;13.70;98.40
44166;DHT22;30476;53.468;9.826;2022-11-11T01:23:29;13.70;98.50
44166;DHT22;30476;53.468;9.826;2022-11-11T01:26:01;13.70;98.50
44166;DHT22;30476;53.468;9.826;2022-11-11T01:28:27;13.70;98.50
44166;DHT22;30476;53.468;9.826;2022-11-11T01:30:53;13.70;98.50
44166;DHT22;30476;53.468;9.826;2022-11-11T01:33:24;13.70;98.40
44166;DHT22;30476;53.468;9.826;2022-11-11T01:35:50;13.70;98.50
44166;DHT22;30476;53.468;9.826;2022-11-11T01:38:15;13.70;98.40
44166;DHT22;30476;53.468;9.826;2022-11-11T01:40:44;13.70;98.50
44166;DHT22;30476;53.468;9.826;2022-11-11T01:45:56;13.70;98.80
44166;DHT22;30476;53.468;9.826;2022-11-11T01:48:38;13.70;98.50
44166;DHT22;30476;53.468;9.826;2022-11-11T01:55:13;13.70;98.80
44166;DHT22;30476;53.468;9.826;2022-11-11T01:57:44;13.60;98.40
44166;DHT22;30476;53.468;9.826;2022-11-11T02:00:14;13.60;98.40
44166;DHT22;30476;53.468;9.826;2022-11-11T02:02:47;13.60;98.40
44166;DHT22;30476;53.468;9.826;2022-11-11T02:05:17;13.60;98.50
44166;DHT22;30476;53.468;9.826;2022-11-11T02:08:06;13.60;98.40
44166;DHT22;30476;53.468;9.826;2022-11-11T02:10:34;13.60;98.40
44166;DHT22;30476;53.468;9.826;2022-11-11T02:13:01;13.60;98.40
44166;DHT22;30476;53.468;9.826;2022-11-11T02:15:45;13.60;98.40
44166;DHT22;30476;53.468;9.826;2022-11-11T02:18:11;13.50;98.40
44166;DHT22;30476;53.468;9.826;2022-11-11T02:20:39;13.50;98.40
44166;DHT22;30476;53.468;9.826;2022-11-11T02:25:45;13.50;98.40
44166;DHT22;30476;53.468;9.826;2022-11-11T02:28:12;13.50;98.40
44166;DHT22;30476;53.468;9.826;2022-11-11T02:30:39;13.40;98.30
44166;DHT22;30476;53.468;9.826;2022-11-11T02:33:05;13.40;98.40
44166;DHT22;30476;53.468;9.826;2022-11-11T02:35:36;13.40;98.40
44166;DHT22;30476;53.468;9.826;2022-11-11T02:38:04;13.40;98.40
44166;DHT22;30476;53.468;9.826;2022-11-11T02:43:02;13.30;98.40
44166;DHT22;30476;53.468;9.826;2022-11-11T02:45:28;13.30;98.50
44166;DHT22;30476;53.468;9.826;2022-11-11T02:47:54;13.30;98.50
44166;DHT22;30476;53.468;9.826;2022-11-11T02:50:20;13.30;98.50
44166;DHT22;30476;53.468;9.826;2022-11-11T02:52:46;13.30;98.50
44166;DHT22;30476;53.468;9.826;2022-11-11T02:55:11;13.30;98.50
44166;DHT22;30476;53.468;9.826;2022-11-11T02:57:37;13.20;98.50
44166;DHT22;30476;53.468;9.826;2022-11-11T03:00:04;13.30;98.50
44166;DHT22;30476;53.468;9.826;2022-11-11T03:02:30;13.20;98.50
44166;DHT22;30476;53.468;9.826;2022-11-11T03:04:57;13.20;98.50
44166;DHT22;30476;53.468;9.826;2022-11-11T03:07:24;13.20;98.50
44166;DHT22;30476;53.468;9.826;2022-11-11T03:09:50;13.30;98.50
44166;DHT22;30476;53.468;9.826;2022-11-11T03:12:16;13.20;98.50
44166;DHT22;30476;53.468;9.826;2022-11-11T03:14:42;13.20;98.50
44166;DHT22;30476;53.468;9.826;2022-11-11T03:17:08;13.20;98.50
44166;DHT22;30476;53.468;9.826;2022-11-11T03:19:53;13.20;98.40
44166;DHT22;30476;53.468;9.826;2022-11-11T03:22:38;13.20;98.40
44166;DHT22;30476;53.468;9.826;2022-11-11T03:25:05;13.20;98.40
44166;DHT22;30476;53.468;9.826;2022-11-11T03:27:50;13.20;98.40
44166;DHT22;30476;53.468;9.826;2022-11-11T03:30:16;13.10;98.40
44166;DHT22;30476;53.468;9.826;2022-11-11T03:32:42;13.10;98.40
44166;DHT22;30476;53.468;9.826;2022-11-11T03:35:08;13.10;98.40
44166;DHT22;30476;53.468;9.826;2022-11-11T03:37:35;13.10;98.40
44166;DHT22;30476;53.468;9.826;2022-11-11T03:40:19;13.10;98.40
44166;DHT22;30476;53.468;9.826;2022-11-11T03:42:45;13.00;98.50
44166;DHT22;30476;53.468;9.826;2022-11-11T03:45:11;13.00;98.50
44166;DHT22;30476;53.468;9.826;2022-11-11T03:47:36;13.00;98.50
44166;DHT22;30476;53.468;9.826;2022-11-11T03:50:02;13.00;98.50
44166;DHT22;30476;53.468;9.826;2022-11-11T03:52:28;13.00;98.50
44166;DHT22;30476;53.468;9.826;2022-11-11T03:54:54;13.00;98.50
44166;DHT22;30476;53.468;9.826;2022-11-11T03:57:20;13.00;98.60
44166;DHT22;30476;53.468;9.826;2022-11-11T03:59:55;13.00;98.60
44166;DHT22;30476;53.468;9.826;2022-11-11T04:02:21;13.00;98.60
44166;DHT22;30476;53.468;9.826;2022-11-11T04:05:05;12.90;98.60
44166;DHT22;30476;53.468;9.826;2022-11-11T04:07:50;12.90;98.60
44166;DHT22;30476;53.468;9.826;2022-11-11T04:10:35;12.90;98.60
44166;DHT22;30476;53.468;9.826;2022-11-11T04:13:01;12.90;98.60
44166;DHT22;30476;53.468;9.826;2022-11-11T04:15:46;12.80;98.50
44166;DHT22;30476;53.468;9.826;2022-11-11T04:18:30;12.80;98.60
44166;DHT22;30476;53.468;9.826;2022-11-11T04:21:15;12.80;98.60
44166;DHT22;30476;53.468;9.826;2022-11-11T04:24:00;12.80;98.60
44166;DHT22;30476;53.468;9.826;2022-11-11T04:26:26;12.80;98.60
44166;DHT22;30476;53.468;9.826;2022-11-11T04:28:52;12.80;98.60
44166;DHT22;30476;53.468;9.826;2022-11-11T04:31:37;12.80;98.60
44166;DHT22;30476;53.468;9.826;2022-11-11T04:34:23;12.70;98.60
44166;DHT22;30476;53.468;9.826;2022-11-11T04:36:48;12.70;98.60
44166;DHT22;30476;53.468;9.826;2022-11-11T04:39:14;12.70;98.60
44166;DHT22;30476;53.468;9.826;2022-11-11T04:41:59;12.70;98.60
44166;DHT22;30476;53.468;9.826;2022-11-11T04:44:24;12.70;98.50
44166;DHT22;30476;53.468;9.826;2022-11-11T04:47:09;12.70;98.50
44166;DHT22;30476;53.468;9.826;2022-11-11T04:49:35;12.70;98.50
44166;DHT22;30476;53.468;9.826;2022-11-11T04:52:01;12.70;98.60
44166;DHT22;30476;53.468;9.826;2022-11-11T04:54:45;12.70;98.60
44166;DHT22;30476;53.468;9.826;2022-11-11T04:57:29;12.70;98.60
44166;DHT22;30476;53.468;9.826;2022-11-11T04:59:55;12.60;98.50
44166;DHT22;30476;53.468;9.826;2022-11-11T05:02:21;12.60;98.50
44166;DHT22;30476;53.468;9.826;2022-11-11T05:05:06;12.60;98.60
44166;DHT22;30476;53.468;9.826;2022-11-11T05:07:31;12.60;98.50
44166;DHT22;30476;53.468;9.826;2022-11-11T05:10:16;12.60;98.60
44166;DHT22;30476;53.468;9.826;2022-11-11T05:12:46;12.60;98.60
44166;DHT22;30476;53.468;9.826;2022-11-11T05:15:11;12.60;98.60
44166;DHT22;30476;53.468;9.826;2022-11-11T05:17:56;12.60;98.70
44166;DHT22;30476;53.468;9.826;2022-11-11T05:20:40;12.60;98.70
44166;DHT22;30476;53.468;9.826;2022-11-11T05:23:25;12.50;98.60
44166;DHT22;30476;53.468;9.826;2022-11-11T05:26:10;12.60;98.70
44166;DHT22;30476;53.468;9.826;2022-11-11T05:28:36;12.50;98.60
44166;DHT22;30476;53.468;9.826;2022-11-11T05:31:02;12.60;98.70
44166;DHT22;30476;53.468;9.826;2022-11-11T05:33:28;12.50;98.70
44166;DHT22;30476;53.468;9.826;2022-11-11T05:35:54;12.50;98.80
44166;DHT22;30476;53.468;9.826;2022-11-11T05:38:19;12.50;98.80
44166;DHT22;30476;53.468;9.826;2022-11-11T05:40:45;12.50;99.00
44166;DHT22;30476;53.468;9.826;2022-11-11T05:43:11;12.40;99.00
44166;DHT22;30476;53.468;9.826;2022-11-11T05:45:37;12.40;99.00
44166;DHT22;30476;53.468;9.826;2022-11-11T05:48:05;12.40;99.00
44166;DHT22;30476;53.468;9.826;2022-11-11T05:50:31;12.40;99.00
44166;DHT22;30476;53.468;9.826;2022-11-11T05:52:56;12.50;99.10
44166;DHT22;30476;53.468;9.826;2022-11-11T05:55:22;12.40;99.10
44166;DHT22;30476;53.468;9.826;2022-11-11T05:57:48;12.40;99.10
44166;DHT22;30476;53.468;9.826;2022-11-11T06:00:14;12.40;99.10
44166;DHT22;30476;53.468;9.826;2022-11-11T06:02:40;12.40;99.10
44166;DHT22;30476;53.468;9.826;2022-11-11T06:05:06;12.40;99.20
44166;DHT22;30476;53.468;9.826;2022-11-11T06:07:36;12.40;99.20
44166;DHT22;30476;53.468;9.826;2022-11-11T06:10:02;12.40;99.20
44166;DHT22;30476;53.468;9.826;2022-11-11T06:12:48;12.40;99.20
44166;DHT22;30476;53.468;9.826;2022-11-11T06:15:33;12.40;99.20
44166;DHT22;30476;53.468;9.826;2022-11-11T06:18:01;12.40;99.10
44166;DHT22;30476;53.468;9.826;2022-11-11T06:20:27;12.40;99.30
44166;DHT22;30476;53.468;9.826;2022-11-11T06:22:53;12.50;99.30
44166;DHT22;30476;53.468;9.826;2022-11-11T06:25:30;12.40;99.30
44166;DHT22;30476;53.468;9.826;2022-11-11T06:28:16;12.40;99.40
44166;DHT22;30476;53.468;9.826;2022-11-11T06:30:42;12.40;99.40
44166;DHT22;30476;53.468;9.826;2022-11-11T06:33:08;12.30;99.40
44166;DHT22;30476;53.468;9.826;2022-11-11T06:35:38;12.30;99.40
44166;DHT22;30476;53.468;9.826;2022-11-11T06:38:05;12.30;99.40
44166;DHT22;30476;53.468;9.826;2022-11-11T06:40:32;12.20;99.50
44166;DHT22;30476;53.468;9.826;2022-11-11T06:42:59;12.30;99.50
44166;DHT22;30476;53.468;9.826;2022-11-11T06:45:27;12.20;99.50
44166;DHT22;30476;53.468;9.826;2022-11-11T06:47:53;12.30;99.60
44166;DHT22;30476;53.468;9.826;2022-11-11T06:50:19;12.30;99.60
44166;DHT22;30476;53.468;9.826;2022-11-11T06:52:46;12.30;99.60
44166;DHT22;30476;53.468;9.826;2022-11-11T06:55:11;12.30;99.70
44166;DHT22;30476;53.468;9.826;2022-11-11T06:57:37;12.30;99.70
44166;DHT22;30476;53.468;9.826;2022-11-11T07:00:04;12.30;99.80
44166;DHT22;30476;53.468;9.826;2022-11-11T07:02:31;12.30;99.80
44166;DHT22;30476;53.468;9.826;2022-11-11T07:04:57;12.30;99.80
44166;DHT22;30476;53.468;9.826;2022-11-11T07:07:23;12.30;99.80
44166;DHT22;30476;53.468;9.826;2022-11-11T07:09:49;12.30;99.80
44166;DHT22;30476;53.468;9.826;2022-11-11T07:12:15;12.40;99.90
44166;DHT22;30476;53.468;9.826;2022-11-11T07:14:41;12.40;99.90
44166;DHT22;30476;53.468;9.826;2022-11-11T07:17:06;12.30;99.90
44166;DHT22;30476;53.468;9.826;2022-11-11T07:19:32;12.40;99.90
44166;DHT22;30476;53.468;9.826;2022-11-11T07:21:58;12.30;99.90
44166;DHT22;30476;53.468;9.826;2022-11-11T07:24:24;12.40;99.90
44166;DHT22;30476;53.468;9.826;2022-11-11T07:26:50;12.40;99.90
44166;DHT22;30476;53.468;9.826;2022-11-11T07:29:16;12.30;99.90
44166;DHT22;30476;53.468;9.826;2022-11-11T07:31:42;12.30;99.90
44166;DHT22;30476;53.468;9.826;2022-11-11T07:34:07;12.20;99.90
44166;DHT22;30476;53.468;9.826;2022-11-11T07:36:33;12.30;99.90
44166;DHT22;30476;53.468;9.826;2022-11-11T07:38:59;12.30;99.90
44166;DHT22;30476;53.468;9.826;2022-11-11T07:41:25;12.30;99.90
44166;DHT22;30476;53.468;9.826;2022-11-11T07:43:51;12.30;99.90
44166;DHT22;30476;53.468;9.826;2022-11-11T07:46:17;12.20;99.90
44166;DHT22;30476;53.468;9.826;2022-11-11T07:48:43;12.30;99.90
44166;DHT22;30476;53.468;9.826;2022-11-11T07:51:09;12.30;99.90
44166;DHT22;30476;53.468;9.826;2022-11-11T07:53:35;12.30;99.90
44166;DHT22;30476;53.468;9.826;2022-11-11T07:56:01;12.30;99.90
44166;DHT22;30476;53.468;9.826;2022-11-11T07:58:26;12.30;99.90
44166;DHT22;30476;53.468;9.826;2022-11-11T08:00:52;12.30;99.90
44166;DHT22;30476;53.468;9.826;2022-11-11T08:03:18;12.30;99.90
44166;DHT22;30476;53.468;9.826;2022-11-11T08:05:44;12.30;99.90
44166;DHT22;30476;53.468;9.826;2022-11-11T08:08:10;12.40;99.90
44166;DHT22;30476;53.468;9.826;2022-11-11T08:10:36;12.40;99.90
44166;DHT22;30476;53.468;9.826;2022-11-11T08:13:02;12.40;99.90
44166;DHT22;30476;53.468;9.826;2022-11-11T08:15:47;12.40;99.90
44166;DHT22;30476;53.468;9.826;2022-11-11T08:18:13;12.40;99.90
44166;DHT22;30476;53.468;9.826;2022-11-11T08:20:39;12.40;99.90
44166;DHT22;30476;53.468;9.826;2022-11-11T08:23:05;12.40;99.90
44166;DHT22;30476;53.468;9.826;2022-11-11T08:25:35;12.40;99.90
44166;DHT22;30476;53.468;9.826;2022-11-11T08:28:03;12.40;99.90
44166;DHT22;30476;53.468;9.826;2022-11-11T08:30:30;12.40;99.90
44166;DHT22;30476;53.468;9.826;2022-11-11T08:33:04;12.40;99.90
44166;DHT22;30476;53.468;9.826;2022-11-11T08:35:31;12.50;99.90
44166;DHT22;30476;53.468;9.826;2022-11-11T08:38:00;12.50;99.90
44166;DHT22;30476;53.468;9.826;2022-11-11T08:40:27;12.50;99.90
44166;DHT22;30476;53.468;9.826;2022-11-11T08:42:57;12.50;99.90
44166;DHT22;30476;53.468;9.826;2022-11-11T08:45:24;12.60;99.90
44166;DHT22;30476;53.468;9.826;2022-11-11T08:47:50;12.60;99.90
44166;DHT22;30476;53.468;9.826;2022-11-11T08:50:17;12.60;99.90
44166;DHT22;30476;53.468;9.826;2022-11-11T08:52:47;12.60;99.90
44166;DHT22;30476;53.468;9.826;2022-11-11T08:55:13;12.60;99.90
44166;DHT22;30476;53.468;9.826;2022-11-11T08:57:39;12.70;99.90
44166;DHT22;30476;53.468;9.826;2022-11-11T09:00:05;12.70;99.90
44166;DHT22;30476;53.468;9.826;2022-11-11T09:02:31;12.70;99.90
44166;DHT22;30476;53.468;9.826;2022-11-11T09:04:57;12.70;99.90
44166;DHT22;30476;53.468;9.826;2022-11-11T09:07:23;12.70;99.90
44166;DHT22;30476;53.468;9.826;2022-11-11T09:09:49;12.70;99.90
44166;DHT22;30476;53.468;9.826;2022-11-11T09:12:15;12.80;99.90
44166;DHT22;30476;53.468;9.826;2022-11-11T09:14:41;12.70;99.90
44166;DHT22;30476;53.468;9.826;2022-11-11T09:17:07;12.70;99.90
44166;DHT22;30476;53.468;9.826;2022-11-11T09:19:33;12.80;99.90
44166;DHT22;30476;53.468;9.826;2022-11-11T09:21:58;12.70;99.90
44166;DHT22;30476;53.468;9.826;2022-11-11T09:24:24;12.70;99.90
44166;DHT22;30476;53.468;9.826;2022-11-11T09:26:50;12.80;99.90
44166;DHT22;30476;53.468;9.826;2022-11-11T09:29:17;12.80;99.90
44166;DHT22;30476;53.468;9.826;2022-11-11T09:31:43;12.90;99.90
44166;DHT22;30476;53.468;9.826;2022-11-11T09:34:09;12.80;99.90
44166;DHT22;30476;53.468;9.826;2022-11-11T09:36:35;12.80;99.90
44166;DHT22;30476;53.468;9.826;2022-11-11T09:39:00;12.80;99.90
44166;DHT22;30476;53.468;9.826;2022-11-11T09:41:43;12.80;99.90
44166;DHT22;30476;53.468;9.826;2022-11-11T09:47:30;12.80;99.90
44166;DHT22;30476;53.468;9.826;2022-11-11T09:50:03;12.80;99.90
44166;DHT22;30476;53.468;9.826;2022-11-11T09:52:31;12.80;99.90
44166;DHT22;30476;53.468;9.826;2022-11-11T09:55:17;12.80;99.90
44166;DHT22;30476;53.468;9.826;2022-11-11T09:57:57;12.80;99.90
44166;DHT22;30476;53.468;9.826;2022-11-11T10:02:54;12.90;99.90
44166;DHT22;30476;53.468;9.826;2022-11-11T10:05:25;12.90;99.90
44166;DHT22;30476;53.468;9.826;2022-11-11T10:08:14;12.90;99.90
44166;DHT22;30476;53.468;9.826;2022-11-11T10:10:53;13.00;99.90
44166;DHT22;30476;53.468;9.826;2022-11-11T10:13:28;13.00;99.90
44166;DHT22;30476;53.468;9.826;2022-11-11T10:21:52;13.10;99.90
44166;DHT22;30476;53.468;9.826;2022-11-11T10:24:30;13.10;99.90
44166;DHT22;30476;53.468;9.826;2022-11-11T10:27:05;13.10;99.90
44166;DHT22;30476;53.468;9.826;2022-11-11T10:29:40;13.10;99.90
44166;DHT22;30476;53.468;9.826;2022-11-11T10:32:15;13.20;99.90
44166;DHT22;30476;53.468;9.826;2022-11-11T10:34:42;13.20;99.90
44166;DHT22;30476;53.468;9.826;2022-11-11T10:37:17;13.20;99.90
44166;DHT22;30476;53.468;9.826;2022-11-11T10:39:54;13.20;99.90
44166;DHT22;30476;53.468;9.826;2022-11-11T10:42:23;13.20;99.90
44166;DHT22;30476;53.468;9.826;2022-11-11T10:44:50;13.20;99.90
44166;DHT22;30476;53.468;9.826;2022-11-11T10:47:46;13.20;99.80
44166;DHT22;30476;53.468;9.826;2022-11-11T10:50:22;13.30;99.80
44166;DHT22;30476;53.468;9.826;2022-11-11T10:53:34;13.20;99.80
44166;DHT22;30476;53.468;9.826;2022-11-11T10:56:37;13.20;99.90
44166;DHT22;30476;53.468;9.826;2022-11-11T10:59:42;13.30;99.90
44166;DHT22;30476;53.468;9.826;2022-11-11T11:02:27;13.30;99.80
44166;DHT22;30476;53.468;9.826;2022-11-11T11:05:00;13.20;99.70
44166;DHT22;30476;53.468;9.826;2022-11-11T11:07:35;13.20;99.70
44166;DHT22;30476;53.468;9.826;2022-11-11T11:10:17;13.20;99.70
44166;DHT22;30476;53.468;9.826;2022-11-11T11:15:16;13.20;99.70
44166;DHT22;30476;53.468;9.826;2022-11-11T11:17:56;13.20;99.80
44166;DHT22;30476;53.468;9.826;2022-11-11T11:20:23;13.20;99.80
44166;DHT22;30476;53.468;9.826;2022-11-11T11:22:51;13.30;99.90
44166;DHT22;30476;53.468;9.826;2022-11-11T11:25:21;13.30;99.90
44166;DHT22;30476;53.468;9.826;2022-11-11T11:27:52;13.20;99.80
44166;DHT22;30476;53.468;9.826;2022-11-11T11:30:23;13.10;99.80
44166;DHT22;30476;53.468;9.826;2022-11-11T11:33:00;13.10;99.90
44166;DHT22;30476;53.468;9.826;2022-11-11T11:35:31;13.20;99.90
44166;DHT22;30476;53.468;9.826;2022-11-11T11:37:57;13.20;99.90
44166;DHT22;30476;53.468;9.826;2022-11-11T11:40:23;13.20;99.90
44166;DHT22;30476;53.468;9.826;2022-11-11T11:42:49;13.20;99.90
44166;DHT22;30476;53.468;9.826;2022-11-11T11:45:26;13.20;99.90
44166;DHT22;30476;53.468;9.826;2022-11-11T11:50:45;13.30;99.80
44166;DHT22;30476;53.468;9.826;2022-11-11T11:59:47;13.30;99.70
44166;DHT22;30476;53.468;9.826;2022-11-11T12:01:51;13.30;99.70
44166;DHT22;30476;53.468;9.826;2022-11-11T12:10:04;13.20;99.70
44166;DHT22;30476;53.468;9.826;2022-11-11T12:15:36;13.20;99.70
44166;DHT22;30476;53.468;9.826;2022-11-11T12:18:25;13.30;99.90
44166;DHT22;30476;53.468;9.826;2022-11-11T12:21:15;13.30;99.70
44166;DHT22;30476;53.468;9.826;2022-11-11T12:23:46;13.30;99.70
44166;DHT22;30476;53.468;9.826;2022-11-11T12:28:58;13.30;99.70
44166;DHT22;30476;53.468;9.826;2022-11-11T12:34:34;13.30;99.70
44166;DHT22;30476;53.468;9.826;2022-11-11T12:37:47;13.30;99.70
44166;DHT22;30476;53.468;9.826;2022-11-11T12:45:17;13.40;99.60
44166;DHT22;30476;53.468;9.826;2022-11-11T12:47:57;13.40;99.70
44166;DHT22;30476;53.468;9.826;2022-11-11T12:50:32;13.40;99.70
44166;DHT22;30476;53.468;9.826;2022-11-11T12:53:27;13.40;99.70
44166;DHT22;30476;53.468;9.826;2022-11-11T12:58:49;13.40;99.70
44166;DHT22;30476;53.468;9.826;2022-11-11T13:15:37;13.40;99.90
44166;DHT22;30476;53.468;9.826;2022-11-11T13:18:11;13.40;99.90
44166;DHT22;30476;53.468;9.826;2022-11-11T13:23:09;13.40;99.90
44166;DHT22;30476;53.468;9.826;2022-11-11T13:25:38;13.50;99.90
44166;DHT22;30476;53.468;9.826;2022-11-11T13:31:19;13.50;99.90
44166;DHT22;30476;53.468;9.826;2022-11-11T13:33:54;13.50;99.90
44166;DHT22;30476;53.468;9.826;2022-11-11T13:36:26;13.50;99.90
44166;DHT22;30476;53.468;9.826;2022-11-11T13:38:56;13.60;99.90
44166;DHT22;30476;53.468;9.826;2022-11-11T13:41:35;13.60;99.90
44166;DHT22;30476;53.468;9.826;2022-11-11T13:44:04;13.60;99.90
44166;DHT22;30476;53.468;9.826;2022-11-11T13:46:39;13.60;99.90
44166;DHT22;30476;53.468;9.826;2022-11-11T13:49:36;13.60;99.90
44166;DHT22;30476;53.468;9.826;2022-11-11T13:52:35;13.70;99.90
44166;DHT22;30476;53.468;9.826;2022-11-11T13:55:08;13.70;99.90
44166;DHT22;30476;53.468;9.826;2022-11-11T13:57:49;13.70;99.90
44166;DHT22;30476;53.468;9.826;2022-11-11T14:02:41;13.70;99.90
44166;DHT22;30476;53.468;9.826;2022-11-11T14:15:56;13.80;99.90
44166;DHT22;30476;53.468;9.826;2022-11-11T14:20:56;13.80;99.90
44166;DHT22;30476;53.468;9.826;2022-11-11T14:28:33;13.90;99.90
44166;DHT22;30476;53.468;9.826;2022-11-11T14:34:38;13.90;99.90
44166;DHT22;30476;53.468;9.826;2022-11-11T14:45:04;14.00;99.80
44166;DHT22;30476;53.468;9.826;2022-11-11T14:47:50;14.00;99.70
44166;DHT22;30476;53.468;9.826;2022-11-11T14:53:00;14.00;99.80
44166;DHT22;30476;53.468;9.826;2022-11-11T14:55:28;14.00;99.80
44166;DHT22;30476;53.468;9.826;2022-11-11T15:00:50;14.00;99.90
44166;DHT22;30476;53.468;9.826;2022-11-11T15:08:54;13.90;99.90
44166;DHT22;30476;53.468;9.826;2022-11-11T15:14:33;13.90;99.90
44166;DHT22;30476;53.468;9.826;2022-11-11T15:20:00;13.90;99.90
44166;DHT22;30476;53.468;9.826;2022-11-11T15:27:53;13.70;99.90
44166;DHT22;30476;53.468;9.826;2022-11-11T15:30:22;13.80;99.90
44166;DHT22;30476;53.468;9.826;2022-11-11T15:33:10;13.70;99.90
44166;DHT22;30476;53.468;9.826;2022-11-11T15:35:45;13.70;99.90
44166;DHT22;30476;53.468;9.826;2022-11-11T15:38:16;13.60;99.90
44166;DHT22;30476;53.468;9.826;2022-11-11T15:40:50;13.60;99.90
44166;DHT22;30476;53.468;9.826;2022-11-11T15:43:24;13.50;99.90
44166;DHT22;30476;53.468;9.826;2022-11-11T15:45:52;13.50;99.90
44166;DHT22;30476;53.468;9.826;2022-11-11T15:48:25;13.50;99.90
44166;DHT22;30476;53.468;9.826;2022-11-11T15:50:51;13.50;99.90
44166;DHT22;30476;53.468;9.826;2022-11-11T15:53:26;13.40;99.90
44166;DHT22;30476;53.468;9.826;2022-11-11T15:55:55;13.40;99.90
44166;DHT22;30476;53.468;9.826;2022-11-11T15:58:27;13.40;99.90
44166;DHT22;30476;53.468;9.826;2022-11-11T16:00:54;13.30;99.90
44166;DHT22;30476;53.468;9.826;2022-11-11T16:03:42;13.30;99.90
44166;DHT22;30476;53.468;9.826;2022-11-11T16:06:14;13.30;99.90
44166;DHT22;30476;53.468;9.826;2022-11-11T16:08:41;13.30;99.90
44166;DHT22;30476;53.468;9.826;2022-11-11T16:11:12;13.20;99.90
44166;DHT22;30476;53.468;9.826;2022-11-11T16:18:49;13.20;99.90
44166;DHT22;30476;53.468;9.826;2022-11-11T16:21:26;13.20;99.90
44166;DHT22;30476;53.468;9.826;2022-11-11T16:23:54;13.20;99.90
44166;DHT22;30476;53.468;9.826;2022-11-11T16:26:21;13.20;99.90
44166;DHT22;30476;53.468;9.826;2022-11-11T16:28:55;13.20;99.90
44166;DHT22;30476;53.468;9.826;2022-11-11T16:39:27;13.10;99.90
44166;DHT22;30476;53.468;9.826;2022-11-11T16:42:01;13.10;99.90
44166;DHT22;30476;53.468;9.826;2022-11-11T16:44:39;13.10;99.90
44166;DHT22;30476;53.468;9.826;2022-11-11T16:50:26;13.00;99.90
44166;DHT22;30476;53.468;9.826;2022-11-11T16:52:58;13.00;99.90
44166;DHT22;30476;53.468;9.826;2022-11-11T16:55:31;13.00;99.90
44166;DHT22;30476;53.468;9.826;2022-11-11T16:58:21;13.00;99.90
44166;DHT22;30476;53.468;9.826;2022-11-11T17:00:47;13.00;99.90
44166;DHT22;30476;53.468;9.826;2022-11-11T17:03:16;13.00;99.90
44166;DHT22;30476;53.468;9.826;2022-11-11T17:05:56;12.90;99.90
44166;DHT22;30476;53.468;9.826;2022-11-11T17:10:56;13.00;99.90
44166;DHT22;30476;53.468;9.826;2022-11-11T17:13:23;12.90;99.90
44166;DHT22;30476;53.468;9.826;2022-11-11T17:15:57;12.90;99.90
44166;DHT22;30476;53.468;9.826;2022-11-11T17:18:25;12.90;99.90
44166;DHT22;30476;53.468;9.826;2022-11-11T17:20:51;12.90;99.90
44166;DHT22;30476;53.468;9.826;2022-11-11T17:23:17;12.80;99.90
44166;DHT22;30476;53.468;9.826;2022-11-11T17:25:44;12.80;99.90
44166;DHT22;30476;53.468;9.826;2022-11-11T17:28:10;12.80;99.90
44166;DHT22;30476;53.468;9.826;2022-11-11T17:30:36;12.80;99.90
44166;DHT22;30476;53.468;9.826;2022-11-11T17:33:03;12.80;99.90
44166;DHT22;30476;53.468;9.826;2022-11-11T17:35:29;12.80;99.90
44166;DHT22;30476;53.468;9.826;2022-11-11T17:37:55;12.80;99.90
44166;DHT22;30476;53.468;9.826;2022-11-11T17:40:21;12.70;99.90
44166;DHT22;30476;53.468;9.826;2022-11-11T17:42:46;12.70;99.90
44166;DHT22;30476;53.468;9.826;2022-11-11T17:45:12;12.70;99.90
44166;DHT22;30476;53.468;9.826;2022-11-11T17:47:38;12.70;99.90
44166;DHT22;30476;53.468;9.826;2022-11-11T17:50:04;12.70;99.90
44166;DHT22;30476;53.468;9.826;2022-11-11T17:52:30;12.70;99.90
44166;DHT22;30476;53.468;9.826;2022-11-11T17:54:56;12.70;99.90
44166;DHT22;30476;53.468;9.826;2022-11-11T17:57:22;12.70;99.90
44166;DHT22;30476;53.468;9.826;2022-11-11T17:59:47;12.70;99.90
44166;DHT22;30476;53.468;9.826;2022-11-11T18:02:13;12.70;99.90
44166;DHT22;30476;53.468;9.826;2022-11-11T18:04:40;12.60;99.90
44166;DHT22;30476;53.468;9.826;2022-11-11T18:07:06;12.60;99.90
44166;DHT22;30476;53.468;9.826;2022-11-11T18:09:32;12.70;99.90
44166;DHT22;30476;53.468;9.826;2022-11-11T18:11:58;12.60;99.90
44166;DHT22;30476;53.468;9.826;2022-11-11T18:14:24;12.60;99.90
44166;DHT22;30476;53.468;9.826;2022-11-11T18:16:50;12.70;99.90
44166;DHT22;30476;53.468;9.826;2022-11-11T18:19:15;12.70;99.90
44166;DHT22;30476;53.468;9.826;2022-11-11T18:21:42;12.70;99.90
44166;DHT22;30476;53.468;9.826;2022-11-11T18:24:09;12.70;99.90
44166;DHT22;30476;53.468;9.826;2022-11-11T18:26:36;12.70;99.90